Terminal Aerodrome Forecast
Issued by NWS Bismarck, ND

Home | Current Version | Previous Version | Text Only | Print | Product List | Glossary Off
Versions: 1 2 3 4 5 6 7 8 9 10 11 12 13 14 15 16

000
FTUS43 KBIS 181700
TAFBIS
TAF
KBIS 181720Z 1818/1918 13024G31KT P6SM BKN120
     FM190100 11018KT P6SM VCSH BKN050
     FM190600 29015KT P6SM SCT200=

USA.gov is the U.S. government's official web portal to all federal, state and local government web resources and services.